Time;durP1;ratioP1;P1;durP2;ratioP2;P2;SDS_P1;SDS_P2;PMS_P1;PMS_P2;Temp;Humidity;BMP_temperature;BMP_pressure;BME280_temperature;BME280_humidity;BME280_pressure;Samples;Min_cycle;Max_cycle;Signal;HPM_P1;HPM_P2
2022/12/19 00:01:55;;;;;;;13.75;10.32;;;0.80;89.70;;;;;;5134128;27;20421;-62
2022/12/19 00:04:22;;;;;;;16.52;10.50;;;0.80;89.60;;;;;;5133260;27;20413;-62
2022/12/19 00:06:49;;;;;;;14.85;10.80;;;0.80;90.20;;;;;;5135042;22;20423;-66
2022/12/19 00:09:16;;;;;;;13.80;10.27;;;0.80;90.00;;;;;;5076412;28;20466;-65
2022/12/19 00:11:42;;;;;;;14.90;10.00;;;0.90;90.20;;;;;;5076286;28;20419;-65
2022/12/19 00:14:11;;;;;;;14.48;10.30;;;0.90;90.10;;;;;;5076250;28;20415;-65
2022/12/19 00:16:38;;;;;;;13.10;9.45;;;0.90;90.10;;;;;;5076582;28;20427;-65
2022/12/19 00:19:06;;;;;;;14.73;10.10;;;0.90;90.10;;;;;;5075655;28;20424;-65
2022/12/19 00:21:34;;;;;;;15.00;10.45;;;0.90;90.20;;;;;;5076943;28;20797;-65
2022/12/19 00:24:01;;;;;;;16.40;10.68;;;0.90;90.20;;;;;;5076868;28;20414;-65
2022/12/19 00:26:30;;;;;;;15.10;10.10;;;0.90;90.20;;;;;;5078441;28;20411;-64
2022/12/19 00:28:59;;;;;;;14.60;9.60;;;0.90;90.30;;;;;;5079717;28;20415;-66
2022/12/19 00:31:27;;;;;;;14.35;10.45;;;1.00;90.50;;;;;;5080006;28;20438;-65
2022/12/19 00:33:55;;;;;;;16.08;11.02;;;1.00;90.90;;;;;;5080402;28;20408;-66
2022/12/19 00:36:25;;;;;;;15.80;10.27;;;1.00;91.50;;;;;;5080523;28;20427;-66
2022/12/19 00:38:53;;;;;;;16.13;10.55;;;1.00;91.90;;;;;;5081468;28;20426;-66
2022/12/19 00:41:22;;;;;;;15.20;11.00;;;1.10;92.40;;;;;;5081978;28;20411;-67
2022/12/19 00:43:52;;;;;;;16.50;10.60;;;1.10;93.00;;;;;;5082450;28;20418;-65
2022/12/19 00:46:19;;;;;;;15.60;11.10;;;1.00;93.50;;;;;;5082136;28;20415;-66
2022/12/19 00:48:46;;;;;;;15.13;10.85;;;1.10;94.10;;;;;;5081781;28;20418;-65
2022/12/19 00:51:15;;;;;;;15.57;11.23;;;1.10;94.40;;;;;;5081856;28;20407;-64
2022/12/19 00:53:44;;;;;;;15.70;10.90;;;1.10;94.70;;;;;;5081345;28;20447;-65
2022/12/19 00:56:13;;;;;;;14.85;10.38;;;1.10;95.20;;;;;;5081260;28;20864;-65
2022/12/19 00:58:40;;;;;;;17.50;10.98;;;1.10;95.70;;;;;;5081077;28;20415;-65
2022/12/19 01:01:09;;;;;;;16.10;11.00;;;1.10;96.20;;;;;;5081624;28;20407;-65
2022/12/19 01:03:36;;;;;;;15.45;10.07;;;1.10;96.80;;;;;;5080665;28;20422;-65
2022/12/19 01:06:03;;;;;;;16.83;11.25;;;1.10;97.40;;;;;;5079896;28;20415;-65
2022/12/19 01:08:30;;;;;;;17.20;11.52;;;1.10;97.90;;;;;;5080669;28;20411;-65
2022/12/19 01:10:58;;;;;;;17.42;11.60;;;1.10;98.40;;;;;;5080938;28;20422;-66
2022/12/19 01:13:26;;;;;;;16.17;11.20;;;1.10;99.00;;;;;;5081413;28;20430;-65
2022/12/19 01:15:53;;;;;;;18.17;12.35;;;1.10;99.50;;;;;;5081368;28;20483;-64
2022/12/19 01:18:20;;;;;;;17.40;11.98;;;1.10;99.90;;;;;;5082032;28;20404;-63
2022/12/19 01:20:47;;;;;;;15.40;11.80;;;1.10;99.90;;;;;;5079560;28;20416;-64
2022/12/19 01:23:15;;;;;;;17.00;11.73;;;1.10;99.90;;;;;;5080521;28;20426;-64
2022/12/19 01:25:42;;;;;;;15.93;11.10;;;1.10;99.90;;;;;;5079959;28;20474;-65
2022/12/19 01:28:14;;;;;;;17.55;12.30;;;1.10;99.90;;;;;;5080220;28;20418;-66
2022/12/19 01:30:41;;;;;;;17.35;12.10;;;1.10;99.90;;;;;;5080596;28;20415;-65
2022/12/19 01:33:11;;;;;;;16.33;11.75;;;1.10;99.90;;;;;;5080811;28;20839;-64
2022/12/19 01:35:38;;;;;;;17.95;12.50;;;1.10;99.90;;;;;;5080692;28;20459;-65
2022/12/19 01:38:04;;;;;;;18.27;13.32;;;1.10;99.90;;;;;;5079637;28;20411;-65
2022/12/19 01:40:32;;;;;;;18.30;12.82;;;1.10;99.90;;;;;;5079883;28;20887;-64
2022/12/19 01:42:59;;;;;;;18.30;12.10;;;1.20;99.90;;;;;;5079526;28;20424;-64
2022/12/19 01:45:31;;;;;;;15.90;11.73;;;1.20;99.90;;;;;;5079502;28;20911;-65
2022/12/19 01:48:07;;;;;;;18.38;12.85;;;1.20;99.90;;;;;;5078944;28;20914;-65
2022/12/19 01:50:38;;;;;;;17.38;12.27;;;1.20;99.90;;;;;;5080013;28;20423;-65
2022/12/19 01:53:09;;;;;;;19.38;11.85;;;1.20;99.90;;;;;;5079580;28;20412;-64
2022/12/19 01:55:37;;;;;;;18.37;12.50;;;1.20;99.90;;;;;;5078005;28;20874;-64
2022/12/19 01:58:04;;;;;;;16.55;12.20;;;1.10;99.90;;;;;;5078860;28;20906;-65
2022/12/19 02:00:32;;;;;;;18.15;11.90;;;1.10;99.90;;;;;;5078714;28;20421;-64
2022/12/19 02:03:05;;;;;;;17.15;11.60;;;1.10;99.90;;;;;;5078376;28;20411;-64
2022/12/19 02:05:32;;;;;;;18.15;12.32;;;1.10;99.90;;;;;;5077499;28;20414;-64
2022/12/19 02:08:00;;;;;;;16.27;11.35;;;1.10;99.90;;;;;;5076515;28;20517;-65
2022/12/19 02:10:27;;;;;;;16.27;11.23;;;1.20;99.90;;;;;;5077107;28;20955;-65
2022/12/19 02:12:53;;;;;;;17.50;11.50;;;1.20;99.90;;;;;;5077202;28;20419;-64
2022/12/19 02:15:21;;;;;;;17.85;12.52;;;1.20;99.90;;;;;;5077951;28;20772;-65
2022/12/19 02:18:04;;;;;;;19.52;12.68;;;1.20;99.90;;;;;;5077862;28;20415;-64
2022/12/19 02:21:05;;;;;;;17.45;12.18;;;1.20;99.90;;;;;;5078707;28;20407;-65
2022/12/19 02:24:07;;;;;;;18.50;12.02;;;1.20;99.90;;;;;;5074836;28;20431;-65
2022/12/19 02:27:07;;;;;;;20.70;13.00;;;1.20;99.90;;;;;;5080152;28;20415;-65
2022/12/19 02:30:09;;;;;;;18.20;12.63;;;1.20;99.90;;;;;;5079637;28;20899;-65
2022/12/19 02:32:47;;;;;;;18.17;11.95;;;1.20;99.90;;;;;;5018109;28;20447;-65
2022/12/19 02:35:29;;;;;;;17.13;11.93;;;1.20;99.90;;;;;;5018247;28;20428;-65
2022/12/19 02:38:04;;;;;;;16.60;11.73;;;1.30;99.90;;;;;;5056936;28;20419;-64
2022/12/19 02:40:38;;;;;;;17.48;11.95;;;1.30;99.90;;;;;;5079156;28;20416;-64
2022/12/19 02:43:06;;;;;;;18.92;12.77;;;1.30;99.90;;;;;;5078796;28;20415;-64
2022/12/19 02:45:37;;;;;;;16.98;11.70;;;1.30;99.90;;;;;;5078421;28;20412;-65
2022/12/19 02:48:06;;;;;;;18.35;12.80;;;1.30;99.90;;;;;;5077648;28;20412;-65
2022/12/19 02:50:38;;;;;;;17.60;12.43;;;1.30;99.90;;;;;;5075514;28;20422;-65
2022/12/19 02:53:05;;;;;;;19.70;13.00;;;1.30;99.90;;;;;;5076198;28;20412;-65
2022/12/19 02:55:38;;;;;;;16.25;12.60;;;1.30;99.90;;;;;;5076117;28;20422;-65
2022/12/19 02:58:36;;;;;;;16.13;12.07;;;1.30;99.90;;;;;;5075577;28;20411;-65
2022/12/19 03:01:13;;;;;;;17.30;11.70;;;1.40;99.90;;;;;;5069756;28;20419;-64
2022/12/19 03:03:50;;;;;;;17.17;12.40;;;1.40;99.90;;;;;;5075267;28;20891;-64
2022/12/19 03:06:24;;;;;;;20.10;12.60;;;1.30;99.90;;;;;;5075628;28;20428;-65
2022/12/19 03:08:58;;;;;;;19.00;12.73;;;1.40;99.90;;;;;;5075185;28;20902;-64
2022/12/19 03:11:30;;;;;;;17.90;12.20;;;1.40;99.90;;;;;;5075686;28;20407;-65
2022/12/19 03:13:59;;;;;;;16.42;11.75;;;1.40;99.90;;;;;;5075291;28;20426;-64
2022/12/19 03:16:27;;;;;;;17.40;12.18;;;1.40;99.90;;;;;;5075678;28;20942;-64
2022/12/19 03:18:57;;;;;;;15.80;11.15;;;1.40;99.90;;;;;;5076456;28;20434;-66
2022/12/19 03:21:32;;;;;;;17.00;12.30;;;1.40;99.90;;;;;;5076289;28;20438;-66
2022/12/19 03:23:59;;;;;;;16.77;11.30;;;1.40;99.90;;;;;;5076235;28;20420;-65
2022/12/19 03:26:30;;;;;;;16.23;11.80;;;1.40;99.90;;;;;;5075725;28;20446;-65
2022/12/19 03:29:01;;;;;;;17.23;11.88;;;1.50;99.90;;;;;;5075821;28;20407;-64
2022/12/19 03:31:31;;;;;;;19.85;12.30;;;1.50;99.90;;;;;;5076072;28;20856;-65
2022/12/19 03:34:02;;;;;;;16.00;12.02;;;1.50;99.90;;;;;;5076412;28;20420;-65
2022/12/19 03:36:32;;;;;;;19.17;12.18;;;1.50;99.90;;;;;;5075891;28;20431;-64
2022/12/19 03:39:03;;;;;;;19.75;13.00;;;1.50;99.90;;;;;;5076439;28;20419;-64
2022/12/19 03:44:17;;;;;;;18.60;12.30;;;1.60;99.90;;;;;;5076963;28;20391;-65
2022/12/19 03:46:51;;;;;;;21.00;12.40;;;1.60;99.90;;;;;;5077644;28;20408;-65
2022/12/19 03:49:19;;;;;;;20.67;12.80;;;1.60;99.90;;;;;;5077177;28;20411;-65
2022/12/19 03:51:52;;;;;;;19.60;13.98;;;1.60;99.90;;;;;;5078529;28;20420;-65
2022/12/19 03:54:23;;;;;;;18.30;12.60;;;1.60;99.90;;;;;;5077350;28;20423;-66
2022/12/19 03:56:56;;;;;;;19.83;14.23;;;1.60;99.90;;;;;;5075679;28;20427;-65
2022/12/19 03:59:34;;;;;;;17.63;12.20;;;1.70;99.90;;;;;;5076519;28;20418;-65
2022/12/19 04:02:02;;;;;;;19.50;13.13;;;1.70;99.90;;;;;;5076048;28;20764;-66
2022/12/19 04:04:34;;;;;;;17.27;12.30;;;1.70;99.90;;;;;;5076310;28;20407;-65
2022/12/19 04:07:02;;;;;;;17.63;12.77;;;1.70;99.90;;;;;;5077460;28;20500;-66
2022/12/19 04:10:51;;;;;;;17.55;12.70;;;1.70;99.90;;;;;;5116436;27;20348;-65
2022/12/19 04:13:20;;;;;;;19.00;13.27;;;1.70;99.90;;;;;;5114260;28;20420;-65
2022/12/19 04:15:53;;;;;;;19.10;13.52;;;1.70;99.90;;;;;;5114538;28;20409;-67
2022/12/19 04:18:20;;;;;;;20.02;13.27;;;1.70;99.90;;;;;;5094088;28;20423;-65
2022/12/19 04:20:55;;;;;;;21.42;13.40;;;1.70;99.90;;;;;;5093971;28;20791;-66
2022/12/19 04:23:27;;;;;;;19.42;13.15;;;1.70;99.90;;;;;;5082730;22;20853;-62
2022/12/19 04:26:00;;;;;;;19.60;13.27;;;1.70;99.90;;;;;;5052109;28;20422;-61
2022/12/19 04:28:34;;;;;;;18.00;12.87;;;1.70;99.90;;;;;;5051936;28;20422;-62
2022/12/19 04:31:02;;;;;;;20.15;13.95;;;1.70;99.90;;;;;;5050946;28;20414;-61
2022/12/19 04:33:29;;;;;;;21.48;13.90;;;1.70;99.90;;;;;;5050303;28;20422;-62
2022/12/19 04:35:56;;;;;;;21.42;14.50;;;1.70;99.90;;;;;;5050260;28;20882;-61
2022/12/19 04:38:23;;;;;;;21.08;13.88;;;1.70;99.90;;;;;;5052158;28;20755;-61
2022/12/19 04:40:49;;;;;;;19.73;13.85;;;1.80;99.90;;;;;;5053487;28;20410;-63
2022/12/19 04:43:17;;;;;;;20.15;13.13;;;1.80;99.90;;;;;;5050931;28;20421;-63
2022/12/19 04:45:44;;;;;;;19.08;13.60;;;1.80;99.90;;;;;;5051016;28;20418;-62
2022/12/19 04:48:11;;;;;;;19.58;13.95;;;1.80;99.90;;;;;;5051367;28;20422;-61
2022/12/19 04:50:38;;;;;;;18.27;12.80;;;1.80;99.90;;;;;;5051635;28;20438;-62
2022/12/19 04:53:05;;;;;;;21.13;13.75;;;1.80;99.90;;;;;;5052461;28;20410;-62
2022/12/19 04:55:32;;;;;;;18.10;13.13;;;1.80;99.90;;;;;;5053240;28;20429;-63
2022/12/19 04:57:59;;;;;;;19.00;13.33;;;1.80;99.90;;;;;;5052098;28;20437;-62
2022/12/19 05:00:27;;;;;;;19.23;13.20;;;1.80;99.90;;;;;;5051801;28;20837;-62
2022/12/19 05:02:54;;;;;;;19.73;13.20;;;1.80;99.90;;;;;;5050758;28;20487;-60
2022/12/19 05:05:20;;;;;;;20.38;12.95;;;1.90;99.90;;;;;;5051506;28;20410;-63
2022/12/19 05:07:47;;;;;;;21.45;14.10;;;1.90;99.90;;;;;;5053422;28;20902;-62
2022/12/19 05:10:14;;;;;;;21.75;14.30;;;1.90;99.90;;;;;;5054251;28;20934;-62
2022/12/19 05:12:41;;;;;;;21.55;13.80;;;1.90;99.90;;;;;;5052843;28;20422;-62
2022/12/19 05:15:08;;;;;;;19.85;13.27;;;1.90;99.90;;;;;;5052758;28;20413;-61
2022/12/19 05:17:37;;;;;;;19.80;12.80;;;2.00;99.90;;;;;;5053405;28;20438;-62
2022/12/19 05:20:04;;;;;;;19.50;13.90;;;2.00;99.90;;;;;;5052825;28;20410;-62
2022/12/19 05:22:31;;;;;;;19.92;13.10;;;2.00;99.90;;;;;;5040890;28;20415;-61
2022/12/19 05:24:58;;;;;;;18.65;12.63;;;2.00;99.90;;;;;;5043241;28;20421;-62
2022/12/19 05:27:25;;;;;;;21.88;13.77;;;2.10;99.90;;;;;;5042841;28;20447;-61
2022/12/19 05:29:51;;;;;;;21.48;13.93;;;2.10;99.90;;;;;;5041996;28;20427;-62
2022/12/19 05:32:18;;;;;;;19.95;14.23;;;2.10;99.90;;;;;;5035490;28;20418;-61
2022/12/19 05:34:46;;;;;;;19.30;13.52;;;2.10;99.90;;;;;;5034773;28;20502;-62
2022/12/19 05:37:13;;;;;;;17.60;12.57;;;2.10;99.90;;;;;;5034950;28;20423;-61
2022/12/19 05:39:39;;;;;;;18.58;13.00;;;2.10;99.90;;;;;;5034947;28;20426;-62
2022/12/19 05:42:06;;;;;;;21.17;13.77;;;2.10;99.90;;;;;;5032957;28;20435;-61
2022/12/19 05:44:33;;;;;;;20.88;14.60;;;2.10;99.90;;;;;;5032606;28;20434;-60
2022/12/19 05:46:59;;;;;;;22.48;14.20;;;2.10;99.90;;;;;;5036849;28;20442;-63
2022/12/19 05:49:26;;;;;;;19.15;13.40;;;2.10;99.90;;;;;;5044511;28;20432;-63
2022/12/19 05:51:54;;;;;;;20.25;14.15;;;2.10;99.90;;;;;;5039595;28;20514;-62
2022/12/19 05:54:21;;;;;;;23.15;14.75;;;2.10;99.90;;;;;;5045818;28;20422;-59
2022/12/19 05:56:48;;;;;;;20.52;13.98;;;2.10;99.90;;;;;;5038405;28;20436;-63
2022/12/19 05:59:15;;;;;;;21.77;13.63;;;2.10;99.90;;;;;;5027219;28;20420;-63
2022/12/19 06:01:42;;;;;;;20.52;12.27;;;2.10;99.90;;;;;;5030019;28;20313;-61
2022/12/19 06:04:09;;;;;;;15.65;10.93;;;2.10;99.90;;;;;;5038359;28;20655;-62
2022/12/19 06:06:36;;;;;;;21.38;12.48;;;2.10;99.90;;;;;;5023784;28;20683;-63
2022/12/19 06:09:04;;;;;;;18.75;12.05;;;2.10;99.90;;;;;;5032741;28;20198;-62
2022/12/19 06:11:31;;;;;;;17.88;11.13;;;2.00;99.90;;;;;;5041800;28;20229;-62
2022/12/19 06:13:57;;;;;;;19.58;12.25;;;2.00;99.90;;;;;;5043305;28;20681;-62
2022/12/19 06:16:25;;;;;;;17.30;10.52;;;2.00;99.90;;;;;;5045135;28;20210;-61
2022/12/19 06:18:51;;;;;;;18.52;11.60;;;2.00;99.90;;;;;;5038732;28;20669;-62
2022/12/19 06:21:20;;;;;;;18.33;12.30;;;2.00;99.90;;;;;;5036285;28;20198;-62
2022/12/19 06:23:47;;;;;;;21.80;13.43;;;2.00;99.90;;;;;;5036147;28;20574;-62
2022/12/19 06:26:17;;;;;;;20.25;12.80;;;2.00;99.90;;;;;;5039656;28;20225;-62
2022/12/19 06:28:44;;;;;;;21.83;13.57;;;2.00;99.90;;;;;;5040214;28;20563;-62
2022/12/19 06:31:12;;;;;;;23.83;13.70;;;2.10;99.90;;;;;;5037611;28;20225;-63
2022/12/19 06:33:39;;;;;;;20.50;13.40;;;2.10;99.90;;;;;;5036736;28;20225;-62
2022/12/19 06:36:08;;;;;;;23.65;13.98;;;2.10;99.90;;;;;;5037287;28;20212;-62
2022/12/19 06:38:35;;;;;;;20.88;12.23;;;2.10;99.90;;;;;;5037339;28;20202;-62
2022/12/19 06:43:50;;;;;;;19.35;13.60;;;2.10;99.90;;;;;;5037778;28;20182;-61
2022/12/19 06:46:16;;;;;;;21.70;12.50;;;2.10;99.90;;;;;;5037585;28;20212;-63
2022/12/19 06:48:43;;;;;;;19.35;12.73;;;2.10;99.90;;;;;;5036828;28;20198;-62
2022/12/19 06:51:10;;;;;;;18.77;11.43;;;2.10;99.90;;;;;;5037933;28;20589;-62
2022/12/19 06:53:36;;;;;;;19.90;13.00;;;2.10;99.90;;;;;;5036659;28;20229;-63
2022/12/19 06:56:04;;;;;;;20.05;12.23;;;2.10;99.90;;;;;;5036645;28;20203;-61
2022/12/19 06:58:31;;;;;;;22.25;12.60;;;2.10;99.90;;;;;;5036100;28;20207;-62
2022/12/19 07:00:59;;;;;;;19.45;12.63;;;2.10;99.90;;;;;;5035646;28;20206;-62
2022/12/19 07:03:30;;;;;;;23.80;13.88;;;2.10;99.90;;;;;;5036753;28;20222;-62
2022/12/19 07:05:57;;;;;;;17.65;12.43;;;2.20;99.90;;;;;;5036206;28;20193;-62
2022/12/19 07:08:23;;;;;;;24.05;12.85;;;2.20;99.90;;;;;;5036882;28;20203;-62
2022/12/19 07:10:51;;;;;;;24.75;14.75;;;2.20;99.90;;;;;;5036373;28;20218;-63
2022/12/19 07:13:18;;;;;;;19.98;12.30;;;2.20;99.90;;;;;;5035584;28;20229;-63
2022/12/19 07:15:45;;;;;;;20.05;12.57;;;2.20;99.90;;;;;;5035417;28;20206;-62
2022/12/19 07:18:13;;;;;;;22.10;12.65;;;2.20;99.90;;;;;;5034569;28;20679;-63
2022/12/19 07:20:41;;;;;;;20.75;13.25;;;2.20;99.90;;;;;;5035215;28;20198;-62
2022/12/19 07:23:10;;;;;;;22.90;12.57;;;2.20;99.90;;;;;;5040474;28;20591;-61
2022/12/19 07:25:37;;;;;;;20.17;13.02;;;2.20;99.90;;;;;;5041322;28;20201;-61
2022/12/19 07:28:05;;;;;;;19.77;12.90;;;2.30;99.90;;;;;;5041628;28;20213;-62
2022/12/19 07:30:32;;;;;;;19.05;12.60;;;2.30;99.90;;;;;;5036936;28;20230;-64
2022/12/19 07:32:58;;;;;;;23.75;14.07;;;2.30;99.90;;;;;;5039857;28;20312;-62
2022/12/19 07:35:26;;;;;;;25.20;14.23;;;2.30;99.90;;;;;;5040096;28;20203;-63
2022/12/19 07:37:53;;;;;;;24.13;14.38;;;2.30;99.90;;;;;;5035853;28;20207;-62
2022/12/19 07:40:21;;;;;;;24.50;13.45;;;2.30;99.90;;;;;;5033866;28;20698;-62
2022/12/19 07:42:48;;;;;;;23.65;14.75;;;2.30;99.90;;;;;;5034233;28;20225;-63
2022/12/19 07:45:14;;;;;;;24.23;14.00;;;2.30;99.90;;;;;;5034112;28;20210;-62
2022/12/19 07:47:41;;;;;;;24.77;14.38;;;2.30;99.90;;;;;;5033690;28;20690;-63
2022/12/19 07:50:08;;;;;;;22.98;14.18;;;2.30;99.90;;;;;;5034426;28;20225;-61
2022/12/19 07:52:36;;;;;;;22.48;13.65;;;2.30;99.90;;;;;;5033832;28;20229;-61
2022/12/19 07:55:03;;;;;;;23.33;14.10;;;2.30;99.90;;;;;;5036385;28;20541;-62
2022/12/19 07:57:30;;;;;;;21.63;12.32;;;2.40;99.90;;;;;;5036829;28;20213;-62
2022/12/19 07:59:57;;;;;;;21.83;13.77;;;2.40;99.90;;;;;;5036184;28;20194;-63
2022/12/19 08:02:24;;;;;;;25.17;13.60;;;2.40;99.90;;;;;;5035849;28;20592;-62
2022/12/19 08:04:50;;;;;;;24.02;14.18;;;2.40;99.90;;;;;;5035421;28;20208;-62
2022/12/19 08:07:17;;;;;;;23.27;13.55;;;2.50;99.90;;;;;;5037248;28;20205;-62
2022/12/19 08:09:45;;;;;;;23.00;14.20;;;2.50;99.90;;;;;;5035435;28;20278;-62
2022/12/19 08:12:12;;;;;;;24.45;14.55;;;2.50;99.90;;;;;;5036476;28;20230;-62
2022/12/19 08:14:39;;;;;;;21.20;14.30;;;2.50;99.90;;;;;;5037521;28;20206;-63
2022/12/19 08:17:05;;;;;;;22.38;14.35;;;2.60;99.90;;;;;;5038209;28;20212;-62
2022/12/19 08:19:32;;;;;;;26.65;17.52;;;2.60;99.90;;;;;;5040059;28;20206;-63
2022/12/19 08:21:59;;;;;;;26.88;15.27;;;2.60;99.90;;;;;;5043586;28;20297;-64
2022/12/19 08:24:26;;;;;;;25.27;15.15;;;2.60;99.90;;;;;;5047235;28;20205;-63
2022/12/19 08:26:54;;;;;;;21.63;14.63;;;2.60;99.90;;;;;;5046862;28;20201;-62
2022/12/19 08:29:20;;;;;;;25.17;15.05;;;2.70;99.90;;;;;;5046543;28;20200;-62
2022/12/19 08:31:47;;;;;;;28.35;15.60;;;2.70;99.90;;;;;;5038290;28;20226;-63
2022/12/19 08:34:14;;;;;;;25.35;15.57;;;2.80;99.90;;;;;;5039323;28;20202;-62
2022/12/19 08:36:40;;;;;;;24.65;15.90;;;2.80;99.90;;;;;;5040553;28;20659;-62
2022/12/19 08:39:07;;;;;;;26.58;16.10;;;2.80;99.90;;;;;;5039005;28;20202;-63
2022/12/19 08:41:35;;;;;;;21.20;13.70;;;2.90;99.90;;;;;;5041123;28;20202;-62
2022/12/19 08:44:03;;;;;;;24.42;13.75;;;2.90;99.90;;;;;;5043125;28;20206;-63
2022/12/19 08:46:30;;;;;;;26.08;15.75;;;2.90;99.90;;;;;;5040921;28;20207;-62
2022/12/19 08:48:57;;;;;;;21.38;13.68;;;2.90;99.90;;;;;;5038144;28;20213;-63
2022/12/19 08:51:24;;;;;;;24.65;15.00;;;3.00;99.90;;;;;;5040516;28;20218;-63
2022/12/19 08:53:51;;;;;;;22.05;13.57;;;3.00;99.90;;;;;;5039101;28;20206;-62
2022/12/19 08:56:19;;;;;;;24.63;15.13;;;3.00;99.90;;;;;;5036398;28;20203;-62
2022/12/19 08:58:46;;;;;;;21.50;15.18;;;3.00;99.90;;;;;;5036616;28;20206;-63
2022/12/19 09:01:17;;;;;;;19.15;12.73;;;3.10;99.90;;;;;;5037598;28;20206;-63
2022/12/19 09:03:45;;;;;;;26.48;15.18;;;3.10;99.90;;;;;;5036720;28;20284;-62
2022/12/19 09:06:14;;;;;;;23.10;14.85;;;3.10;99.90;;;;;;5038191;28;20209;-61
2022/12/19 09:08:41;;;;;;;21.55;14.60;;;3.20;99.90;;;;;;5041213;28;20198;-62
2022/12/19 09:11:09;;;;;;;19.60;13.60;;;3.20;99.90;;;;;;5045623;28;20218;-63
2022/12/19 09:13:38;;;;;;;21.92;14.48;;;3.20;99.90;;;;;;5041972;28;20233;-65
2022/12/19 09:16:14;;;;;;;21.02;13.82;;;3.30;99.90;;;;;;5036701;28;20209;-65
2022/12/19 09:18:43;;;;;;;22.60;14.45;;;3.30;99.90;;;;;;5037060;28;20190;-65
2022/12/19 09:21:10;;;;;;;20.75;13.15;;;3.30;99.90;;;;;;5037077;28;20285;-62
2022/12/19 09:23:37;;;;;;;21.73;15.00;;;3.30;99.90;;;;;;5035797;28;20240;-60
2022/12/19 09:26:06;;;;;;;20.40;13.00;;;3.40;99.90;;;;;;5036388;28;20240;-61
2022/12/19 09:28:33;;;;;;;23.92;13.85;;;3.40;99.90;;;;;;5043636;28;20205;-61
2022/12/19 09:31:03;;;;;;;19.55;13.32;;;3.40;99.90;;;;;;5039612;28;20226;-60
2022/12/19 09:33:32;;;;;;;18.15;12.90;;;3.40;99.90;;;;;;5036731;28;20280;-61
2022/12/19 09:36:00;;;;;;;20.92;12.95;;;3.50;99.90;;;;;;5036882;28;20207;-60
2022/12/19 09:38:28;;;;;;;20.60;13.38;;;3.50;99.90;;;;;;5036735;28;20226;-60
2022/12/19 09:41:22;;;;;;;17.73;11.55;;;3.50;99.90;;;;;;5036694;28;20205;-61
2022/12/19 09:44:00;;;;;;;19.88;12.85;;;3.60;99.90;;;;;;5036185;28;20187;-60
2022/12/19 09:46:32;;;;;;;14.95;11.80;;;3.60;99.90;;;;;;5040954;28;20205;-60
2022/12/19 09:49:02;;;;;;;17.73;11.55;;;3.60;99.90;;;;;;5039013;28;20667;-61
2022/12/19 09:51:38;;;;;;;20.27;13.05;;;3.60;99.90;;;;;;5036028;28;20313;-61
2022/12/19 09:54:10;;;;;;;18.00;12.38;;;3.70;99.90;;;;;;5037068;28;20201;-61
2022/12/19 09:56:40;;;;;;;19.02;10.80;;;3.70;99.90;;;;;;5037567;28;20190;-61
2022/12/19 09:59:14;;;;;;;18.45;12.75;;;3.70;99.90;;;;;;5034749;28;20915;-61
2022/12/19 10:01:50;;;;;;;13.85;11.00;;;3.80;99.90;;;;;;5036486;28;20285;-61
2022/12/19 10:04:18;;;;;;;15.70;11.98;;;3.80;99.90;;;;;;5039319;28;20190;-60
2022/12/19 10:06:47;;;;;;;15.02;10.48;;;3.80;99.90;;;;;;5043221;28;20212;-61
2022/12/19 10:09:18;;;;;;;18.40;11.45;;;3.90;99.90;;;;;;5042822;28;20208;-61
2022/12/19 10:11:53;;;;;;;12.90;10.93;;;3.90;99.90;;;;;;5045319;28;20294;-61
2022/12/19 10:14:32;;;;;;;14.77;10.60;;;3.90;99.90;;;;;;5045028;28;20190;-62
2022/12/19 10:17:09;;;;;;;17.38;11.48;;;4.00;99.90;;;;;;5041785;28;20193;-60
2022/12/19 10:19:43;;;;;;;17.80;11.95;;;4.00;99.90;;;;;;5041738;28;20564;-63
2022/12/19 10:22:23;;;;;;;14.55;10.23;;;4.00;99.90;;;;;;5042963;28;20231;-60
2022/12/19 10:25:03;;;;;;;15.20;10.65;;;4.00;99.90;;;;;;5037492;28;20194;-61
2022/12/19 10:27:37;;;;;;;19.13;11.15;;;4.00;99.90;;;;;;5036449;28;20202;-61
2022/12/19 10:30:14;;;;;;;14.48;10.07;;;4.00;99.90;;;;;;5035680;28;20190;-61
2022/12/19 10:32:49;;;;;;;17.40;11.52;;;4.00;99.90;;;;;;5036021;28;20602;-62
2022/12/19 10:35:18;;;;;;;19.52;12.75;;;4.00;99.90;;;;;;5038385;28;20190;-60
2022/12/19 10:37:51;;;;;;;16.02;10.13;;;4.00;99.90;;;;;;5037909;28;20209;-60
2022/12/19 10:40:26;;;;;;;15.90;11.52;;;4.00;99.90;;;;;;5035366;28;20193;-61
2022/12/19 10:42:58;;;;;;;16.17;11.70;;;4.10;99.90;;;;;;5034948;28;20593;-61
2022/12/19 10:45:33;;;;;;;16.77;12.32;;;4.10;99.90;;;;;;5035975;28;20184;-61
2022/12/19 10:48:00;;;;;;;20.48;14.45;;;4.10;99.90;;;;;;5035393;28;20241;-61
2022/12/19 10:50:29;;;;;;;15.75;11.35;;;4.10;99.90;;;;;;5058197;23;20230;-62
2022/12/19 10:53:07;;;;;;;19.55;12.90;;;4.20;99.90;;;;;;5034462;28;20632;-61
2022/12/19 10:55:42;;;;;;;18.17;11.85;;;4.20;99.90;;;;;;5034043;28;20655;-62
2022/12/19 10:58:22;;;;;;;19.33;13.85;;;4.20;99.90;;;;;;5034216;28;20200;-61
2022/12/19 11:01:10;;;;;;;18.23;13.52;;;4.30;99.90;;;;;;5034812;28;20213;-61
2022/12/19 11:03:38;;;;;;;16.42;13.32;;;4.30;99.90;;;;;;5035579;28;20184;-61
2022/12/19 11:06:06;;;;;;;18.35;12.63;;;4.40;99.90;;;;;;5034289;28;20597;-63
2022/12/19 11:08:36;;;;;;;16.33;12.57;;;4.50;99.90;;;;;;5033863;28;20210;-63
2022/12/19 11:11:13;;;;;;;19.17;12.40;;;4.60;99.90;;;;;;5034033;28;20234;-63
2022/12/19 11:13:42;;;;;;;18.88;14.80;;;4.60;99.90;;;;;;5032829;28;20419;-64
2022/12/19 11:16:10;;;;;;;20.23;13.75;;;4.70;99.90;;;;;;5033940;28;20202;-65
2022/12/19 11:18:38;;;;;;;21.13;13.77;;;4.70;99.90;;;;;;5033365;28;20209;-62
2022/12/19 11:21:07;;;;;;;;;;;4.80;99.90;;;;;;5034450;28;20056;-61
2022/12/19 11:23:34;;;;;;;;;;;4.90;99.90;;;;;;5033952;28;20328;-64
2022/12/19 11:26:02;;;;;;;;;;;4.90;99.90;;;;;;5034696;28;19924;-62
2022/12/19 11:28:32;;;;;;;;;;;5.00;99.90;;;;;;5034742;28;19925;-63
2022/12/19 11:31:02;;;;;;;;;;;5.00;99.90;;;;;;5034495;28;19931;-65
2022/12/19 11:33:29;;;;;;;;;;;5.00;99.90;;;;;;5034273;28;19924;-63
2022/12/19 11:35:57;;;;;;;;;;;5.10;99.90;;;;;;5035230;28;19940;-62
2022/12/19 11:38:28;;;;;;;;;;;5.10;99.90;;;;;;5035396;28;19921;-61
2022/12/19 11:40:58;;;;;;;;;;;5.10;99.90;;;;;;5036505;28;19925;-62
2022/12/19 11:43:27;;;;;;;;;;;5.20;99.90;;;;;;5036325;28;19921;-61
2022/12/19 11:45:57;;;;;;;;;;;5.20;99.90;;;;;;5035621;28;19921;-60
2022/12/19 11:48:28;;;;;;;;;;;5.20;99.90;;;;;;5035031;28;19928;-62
2022/12/19 11:50:59;;;;;;;;;;;5.20;99.90;;;;;;5034162;28;19927;-62
2022/12/19 11:53:29;;;;;;;;;;;5.20;99.90;;;;;;5034574;28;20381;-63
2022/12/19 11:55:59;;;;;;;;;;;5.20;99.90;;;;;;5033987;28;19960;-61
2022/12/19 11:58:28;;;;;;;;;;;5.20;99.90;;;;;;5033591;28;19921;-60
2022/12/19 12:00:58;;;;;;;;;;;5.20;99.90;;;;;;5033794;28;19925;-62
2022/12/19 12:03:41;;;;;;;;;;;5.20;99.90;;;;;;5033896;28;19972;-62
2022/12/19 12:06:11;;;;;;;;;;;5.20;99.90;;;;;;5033699;28;20292;-61
2022/12/19 12:08:52;;;;;;;;;;;5.30;99.90;;;;;;5033911;28;19921;-61
2022/12/19 12:11:24;;;;;;;;;;;5.30;99.90;;;;;;5033530;28;19921;-61
2022/12/19 12:14:02;;;;;;;;;;;5.30;99.90;;;;;;5034398;28;19975;-62
2022/12/19 12:16:34;;;;;;;;;;;5.30;99.90;;;;;;5034494;28;19931;-61
2022/12/19 12:19:04;;;;;;;;;;;5.40;99.90;;;;;;5033696;28;19986;-61
2022/12/19 12:21:35;;;;;;;;;;;5.40;99.90;;;;;;5033487;28;19921;-62
2022/12/19 12:24:06;;;;;;;;;;;5.40;99.90;;;;;;5033725;28;20300;-62
2022/12/19 12:26:36;;;;;;;;;;;5.40;99.90;;;;;;5033763;28;19964;-60
2022/12/19 12:29:11;;;;;;;;;;;5.40;99.90;;;;;;5033631;28;19921;-61
2022/12/19 12:31:44;;;;;;;;;;;5.40;99.90;;;;;;5035907;28;20369;-61
2022/12/19 12:34:28;;;;;;;;;;;5.40;99.90;;;;;;5037809;28;19927;-60
2022/12/19 12:37:02;;;;;;;;;;;5.40;99.90;;;;;;5038143;28;20030;-60
2022/12/19 12:39:34;;;;;;;;;;;5.50;99.90;;;;;;5038783;28;19928;-61
2022/12/19 12:42:08;;;;;;;;;;;5.50;99.90;;;;;;5039580;28;19925;-61
2022/12/19 12:44:35;;;;;;;;;;;5.50;99.90;;;;;;5038922;28;19921;-61
2022/12/19 12:47:06;;;;;;;;;;;5.60;99.90;;;;;;5039255;28;19928;-63
2022/12/19 12:49:37;;;;;;;;;;;5.60;99.90;;;;;;5038186;28;19921;-64
2022/12/19 12:52:05;;;;;;;;;;;5.60;99.90;;;;;;5037439;28;19927;-64
2022/12/19 12:54:33;;;;;;;;;;;5.70;99.90;;;;;;5037621;28;19921;-63
2022/12/19 12:57:00;;;;;;;;;;;5.70;99.90;;;;;;5037344;28;19931;-65
2022/12/19 12:59:29;;;;;;;;;;;5.70;99.90;;;;;;5037196;28;20293;-64
2022/12/19 13:01:56;;;;;;;;;;;5.70;99.90;;;;;;5037393;28;19921;-62
2022/12/19 13:04:27;;;;;;;;;;;5.70;99.90;;;;;;5037754;28;19928;-62
2022/12/19 13:07:02;;;;;;;;;;;5.70;99.90;;;;;;5038042;28;19921;-63
2022/12/19 13:09:30;;;;;;;;;;;5.70;99.90;;;;;;5037231;28;19928;-64
2022/12/19 13:14:47;;;;;;;;;;;5.70;99.90;;;;;;5037103;28;19923;-63